Flight Track Log - Related Links

Times and Time Zones

All times are in EDT time to prevent confusion due to time zone crossing. See the UAL4604 flight status page for this flight to view local times or setup timezone preferences in your user account.

Time Position Orientation Groundspeed Altitude Reporting Facility
EDT Latitude Longitude Course Direction KTS MPH feet Rate Location/Type
Tue 02:17:17 PM 29.9594 -95.3414 97° East 151 174 700  Level Houston Center
Tue 02:18:31 PM 29.9436 -95.2614 103° East 246 283 2,600 1,912 Climbing Houston Center
Tue 02:19:10 PM 29.9411 -95.2169 94° East 231 266 4,300 2,060 Climbing Houston Center
Tue 02:19:38 PM 29.9353 -95.1708 98° East 266 306 4,900 677 Climbing Houston Center
Tue 02:20:12 PM 29.9322 -95.1308 95° East 264 304 5,000  Climbing Houston Center
Tue 02:20:33 PM 29.9281 -95.0919 97° East 270 311 4,900 1,333 Descending Houston Center
Tue 02:21:00 PM 29.8979 -94.6479 97° East  Level FlightAware Approximate
Tue 02:21:15 PM 29.9253 -95.0447 94° East 269 310 6,400  Level Houston Center
Tue 02:21:40 PM 29.9208 -94.9942 96° East 263 303 7,600 1,742 Climbing Houston Center
Tue 02:22:00 PM 29.8827 -94.5105 97° East  Level FlightAware Approximate
Tue 02:22:17 PM 29.9183 -94.9589 95° East 268 308 8,200  Level Houston Center
Tue 02:22:42 PM 29.9122 -94.9036 97° East 292 336 9,800 2,613 Climbing Houston Center
Tue 02:23:19 PM 29.9089 -94.8458 94° East 292 336 10,900 1,309 Climbing Houston Center
Tue 02:23:37 PM 29.9039 -94.8153 101° East 308 354 11,000 484 Climbing Houston Center
Tue 02:24:21 PM 29.9003 -94.7375 93° East 340 391 11,400 896 Climbing Houston Center
Tue 02:24:44 PM 29.8942 -94.6936 99° East 371 427 12,000 1,742 Climbing Houston Center
Tue 02:25:23 PM 29.8892 -94.6203 94° East 367 422 13,200 1,821 Climbing Houston Center
Tue 02:25:40 PM 29.8853 -94.5789 96° East 366 421 13,700 1,452 Climbing Houston Center
Tue 02:26:25 PM 29.8789 -94.5011 95° East 371 427 14,700 1,290 Climbing Houston Center
Tue 02:27:27 PM 29.8672 -94.3786 96° East 384 442 16,000 768 Climbing Houston Center
Tue 02:28:30 PM 29.8608 -94.2461 93° East 413 475 16,300 912 Climbing Houston Center
Tue 02:29:32 PM 29.8558 -94.1089 92° East 421 484 17,900 1,790 Climbing Houston Center
Tue 02:30:34 PM 29.8639 -93.9531 87° East 411 473 20,000 1,839 Climbing Houston Center
Tue 02:31:36 PM 29.8764 -93.8239 84° East 408 470 21,700 1,694 Climbing Houston Center
Tue 02:32:38 PM 29.8903 -93.6953 83° East 409 471 23,500 1,597 Climbing Houston Center
Tue 02:33:40 PM 29.9033 -93.5664 83° East 409 471 25,000 1,500 Climbing Houston Center
Tue 02:34:42 PM 29.9161 -93.4378 83° East 409 471 26,600 1,440 Climbing Houston Center
Tue 02:35:45 PM 29.9322 -93.2833 83° East 406 467 28,000 768 Climbing Houston Center
Tue 02:36:47 PM 29.9458 -93.1467 83° East 427 491 28,200 581 Climbing Houston Center
Tue 02:37:49 PM 29.9606 -93.0061 83° East 442 509 29,200 919 Climbing Houston Center
Tue 02:38:51 PM 29.9733 -92.8647 84° East 443 510 30,100 919 Climbing Houston Center
Tue 02:39:53 PM 29.9869 -92.6919 85° East 454 522 31,100 1,016 Climbing Houston Center
Tue 02:40:55 PM 29.9992 -92.5442 85° East 462 532 32,200 1,056 Climbing Houston Center
Tue 02:41:58 PM 30.0103 -92.3981 85° East 461 531 33,300 1,104 Climbing Houston Center
Tue 02:43:00 PM 30.0225 -92.2531 84° East 458 527 34,500 823 Climbing Houston Center
Tue 02:44:02 PM 30.0339 -92.1081 85° East 456 525 35,000 242 Climbing Houston Center
Tue 02:45:04 PM 30.0458 -91.9553 85° East 472 543 35,000  Level Houston Center
Tue 02:46:06 PM 30.0617 -91.7628 85° East 496 571 35,000  Level Houston Center
Tue 02:47:08 PM 30.0725 -91.5989 86° East 518 596 35,000  Level Houston Center
Tue 02:48:11 PM 30.0836 -91.4297 86° East 529 609 35,000  Level Houston Center
Tue 02:49:13 PM 30.0958 -91.2561 85° East 541 623 35,000  Level Houston Center
Tue 02:50:15 PM 30.1083 -91.0822 85° East 544 626 35,000  Level Houston Center
Tue 02:51:17 PM 30.1339 -90.8781 82° East 537 618 35,000  Level Houston Center
Tue 02:52:19 PM 30.1756 -90.7128 74° East 535 616 35,000  Level Houston Center
Tue 02:53:21 PM 30.2156 -90.5503 74° East 529 609 35,000  Level Houston Center
Tue 02:54:24 PM 30.2547 -90.3872 74° East 526 605 35,000  Level Houston Center
Tue 02:55:26 PM 30.2931 -90.2258 75° East 521 600 35,000  Level Houston Center
Tue 02:56:28 PM 30.3325 -90.0644 74° East 522 601 35,000  Level Houston Center
Tue 02:57:30 PM 30.3808 -89.8817 73° East 516 594 35,000  Level Houston Center
Tue 02:58:32 PM 30.4486 -89.7167 64° Northeast 509 586 35,000 484 Level Houston Center
Tue 02:59:34 PM 30.5081 -89.5731 64° Northeast 496 571 36,000 968 Climbing Houston Center
Tue 03:00:36 PM 30.5614 -89.4425 65° Northeast 459 528 37,000 480 Climbing Houston Center
Tue 03:01:39 PM 30.6144 -89.3114 65° Northeast 450 518 37,000  Level Houston Center
Tue 03:02:41 PM 30.6678 -89.1786 65° Northeast 453 521 37,000  Level Houston Center
Tue 03:03:43 PM 30.7222 -89.0428 65° Northeast 464 534 37,000  Level Houston Center
Tue 03:04:45 PM 30.7833 -88.8944 64° Northeast 475 547 37,000  Level Houston Center
Tue 03:05:47 PM 30.8403 -88.7511 65° Northeast 486 559 37,000  Level Houston Center
Tue 03:06:49 PM 30.9061 -88.5875 65° Northeast 492 566 37,000  Level Houston Center
Tue 03:07:51 PM 30.9656 -88.4411 65° Northeast 498 573 37,000  Level Houston Center
Tue 03:08:54 PM 31.0236 -88.2936 65° Northeast 502 578 37,000  Level Houston Center
Tue 03:09:56 PM 31.0844 -88.1469 64° Northeast 503 579 37,000  Level Houston Center
Tue 03:10:58 PM 31.1536 -87.9708 65° Northeast 498 573 37,000  Level Houston Center
Tue 03:12:00 PM 31.2117 -87.8250 65° Northeast 495 570 37,000  Level Houston Center
Tue 03:13:02 PM 31.2664 -87.6828 66° East 496 571 37,000  Level Houston Center
Tue 03:14:04 PM 31.3333 -87.5447 60° Northeast 490 564 37,000  Level Houston Center
Tue 03:15:06 PM 31.4186 -87.4272 50° Northeast 478 550 37,000  Level Houston Center
Tue 03:15:29 PM 31.4594 -87.3764 47° Northeast 476 548 37,000  Level Atlanta Center
Tue 03:16:29 PM 31.5461 -87.2603 49° Northeast 476 548 37,000  Level Atlanta Center
Tue 03:17:29 PM 31.6325 -87.1389 50° Northeast 476 548 37,000  Level Atlanta Center
Tue 03:18:29 PM 31.7256 -87.0128 49° Northeast 471 542 37,000  Level Atlanta Center
Tue 03:19:29 PM 31.8097 -86.8933 50° Northeast 466 536 37,000  Level Atlanta Center
Tue 03:20:29 PM 31.8939 -86.7736 50° Northeast 466 536 37,000  Level Atlanta Center
Tue 03:21:29 PM 31.9772 -86.6733 46° Northeast 466 536 37,000  Level Atlanta Center
Tue 03:22:29 PM 32.0633 -86.5533 50° Northeast 472 543 37,000  Level Atlanta Center
Tue 03:23:29 PM 32.1469 -86.4356 50° Northeast 477 549 37,000  Level Atlanta Center
Tue 03:24:29 PM 32.2372 -86.3028 51° Northeast 471 542 37,000  Level Atlanta Center
Tue 03:25:29 PM 32.3167 -86.1794 53° Northeast 471 542 37,000  Level Atlanta Center
Tue 03:26:29 PM 32.3981 -86.0561 52° Northeast 471 542 37,000  Level Atlanta Center
Tue 03:27:29 PM 32.4792 -85.9372 51° Northeast 471 542 37,000  Level Atlanta Center
Tue 03:28:29 PM 32.5603 -85.8206 50° Northeast 476 548 37,000  Level Atlanta Center
Tue 03:29:29 PM 32.6414 -85.6967 52° Northeast 482 555 37,000  Level Atlanta Center
Tue 03:30:29 PM 32.7244 -85.5722 52° Northeast 482 555 37,000  Level Atlanta Center
Tue 03:31:29 PM 32.8072 -85.4525 51° Northeast 482 555 37,000  Level Atlanta Center
Tue 03:32:29 PM 32.8881 -85.3250 53° Northeast 482 555 37,000  Level Atlanta Center
Tue 03:33:29 PM 32.9683 -85.2025 52° Northeast 482 555 37,000  Level Atlanta Center
Tue 03:34:29 PM 33.0508 -85.0822 51° Northeast 476 548 37,000  Level Atlanta Center
Tue 03:35:29 PM 33.1311 -84.9592 52° Northeast 469 540 37,000  Level Atlanta Center
Tue 03:36:29 PM 33.2114 -84.8333 53° Northeast 469 540 37,000  Level Atlanta Center
Tue 03:37:29 PM 33.2853 -84.7222 51° Northeast 469 540 37,000  Level Atlanta Center
Tue 03:38:29 PM 33.3756 -84.5811 53° Northeast 474 545 37,000  Level Atlanta Center
Tue 03:39:29 PM 33.4575 -84.4572 52° Northeast 474 545 37,000  Level Atlanta Center
Tue 03:40:29 PM 33.5372 -84.3281 53° Northeast 474 545 37,000  Level Atlanta Center
Tue 03:41:29 PM 33.6189 -84.2008 52° Northeast 484 557 37,000  Level Atlanta Center
Tue 03:42:29 PM 33.7025 -84.0739 52° Northeast 484 557 37,000  Level Atlanta Center
Tue 03:43:29 PM 33.7839 -83.9439 53° Northeast 484 557 37,000  Level Atlanta Center
Tue 03:44:29 PM 33.8650 -83.8186 52° Northeast 484 557 37,000  Level Atlanta Center
Tue 03:45:29 PM 33.9544 -83.6806 52° Northeast 484 557 37,000  Level Atlanta Center
Tue 03:46:29 PM 34.0333 -83.5525 53° Northeast 484 557 37,000  Level Atlanta Center
Tue 03:47:29 PM 34.1142 -83.4242 53° Northeast 478 550 37,000  Level Atlanta Center
Tue 03:48:29 PM 34.1947 -83.2953 53° Northeast 478 550 37,000  Level Atlanta Center
Tue 03:49:29 PM 34.2753 -83.1689 52° Northeast 486 559 37,000  Level Atlanta Center
Tue 03:50:29 PM 34.3536 -83.0397 54° Northeast 486 559 37,000  Level Atlanta Center
Tue 03:51:29 PM 34.4319 -82.9081 54° Northeast 480 552 37,000  Level Atlanta Center
Tue 03:52:29 PM 34.5100 -82.7808 53° Northeast 480 552 37,000  Level Atlanta Center
Tue 03:53:29 PM 34.5919 -82.6511 52° Northeast 480 552 37,000  Level Atlanta Center
Tue 03:54:29 PM 34.6697 -82.5258 53° Northeast 480 552 37,000  Level Atlanta Center
Tue 03:55:29 PM 34.7497 -82.4006 52° Northeast 480 552 37,000  Level Atlanta Center
Tue 03:56:29 PM 34.8272 -82.2700 54° Northeast 475 547 37,000  Level Atlanta Center
Tue 03:57:29 PM 34.8983 -82.1519 54° Northeast 459 528 37,000  Level Atlanta Center
Tue 03:58:29 PM 34.9717 -82.0311 53° Northeast 444 511 37,000  Level Atlanta Center
Tue 03:59:29 PM 35.0467 -81.9050 54° Northeast 444 511 37,000  Level Atlanta Center
Tue 04:00:29 PM 35.1153 -81.7714 58° Northeast 461 531 37,000  Level Atlanta Center
Tue 04:01:29 PM 35.1858 -81.6397 57° Northeast 471 542 37,000  Level Atlanta Center
Tue 04:02:29 PM 35.2581 -81.5053 57° Northeast 471 542 37,000  Level Atlanta Center
Tue 04:03:29 PM 35.3264 -81.3736 58° Northeast 466 536 37,000 -300 Level Atlanta Center
Tue 04:04:29 PM 35.3942 -81.2414 58° Northeast 466 536 36,400 -950 Descending Atlanta Center
Tue 04:05:29 PM 35.4622 -81.1092 58° Northeast 459 528 35,100 -1,250 Descending Atlanta Center
Tue 04:06:29 PM 35.5297 -80.9764 58° Northeast 459 528 33,900 -1,250 Descending Atlanta Center
Tue 04:07:29 PM 35.6017 -80.8461 56° Northeast 459 528 32,600 -1,300 Descending Atlanta Center
Tue 04:08:29 PM 35.6711 -80.7106 58° Northeast 464 534 31,300 -1,300 Descending Atlanta Center
Tue 04:09:29 PM 35.7403 -80.5747 58° Northeast 464 534 30,000 -1,150 Descending Atlanta Center
Tue 04:10:29 PM 35.8094 -80.4411 57° Northeast 464 534 29,000 -373 Descending Atlanta Center
Tue 04:12:10 PM 35.9250 -80.2117 58° Northeast 456 525 29,000  Level Washington Center
Tue 04:13:10 PM 35.9881 -80.0894 57° Northeast 456 525 29,000  Level Washington Center
Tue 04:14:09 PM 36.0575 -79.9625 56° Northeast 451 519 29,000  Level Washington Center
Tue 04:15:10 PM 36.1311 -79.8303 55° Northeast 451 519 29,000  Level Washington Center
Tue 04:16:09 PM 36.2089 -79.6903 55° Northeast 456 525 29,000 -303 Level Washington Center
Tue 04:17:09 PM 36.2756 -79.5725 55° Northeast 450 518 28,400 -1,041 Descending Washington Center
Tue 04:18:10 PM 36.3508 -79.4425 54° Northeast 455 524 26,900 -1,550 Descending Washington Center
Tue 04:19:09 PM 36.4306 -79.2967 56° Northeast 464 534 25,300 -1,563 Descending Washington Center
Tue 04:20:09 PM 36.5011 -79.1681 56° Northeast 456 525 23,800 -1,438 Descending Washington Center
Tue 04:21:10 PM 36.5606 -79.0647 54° Northeast 438 504 22,400 -1,450 Descending Washington Center
Tue 04:22:09 PM 36.6311 -78.9358 56° Northeast 420 483 20,900 -1,513 Descending Washington Center
Tue 04:23:09 PM 36.6903 -78.8244 56° Northeast 415 478 19,400 -950 Descending Washington Center
Tue 04:24:09 PM 36.7583 -78.7028 55° Northeast 415 478 19,000 -200 Descending Washington Center
Tue 04:25:09 PM 36.8328 -78.5683 55° Northeast 415 478 19,000 -33 Level Washington Center
Tue 04:27:09 PM 36.9656 -78.3267 55° Northeast 422 486 18,900 -567 Descending Washington Center
Tue 04:28:09 PM 37.0308 -78.2067 56° Northeast 422 486 17,300 -2,150 Descending Washington Center
Tue 04:29:09 PM 37.0853 -78.1044 56° Northeast 409 471 14,600 -2,678 Descending Washington Center
Tue 04:30:10 PM 37.1439 -77.9917 57° Northeast 394 453 11,900 -2,300 Descending Washington Center
Tue 04:31:09 PM 37.2003 -77.8889 55° Northeast 370 426 10,000 -1,412 Descending Washington Center
Tue 04:32:09 PM 37.2456 -77.8017 57° Northeast 334 384 9,100 -1,300 Descending Washington Center
Tue 04:33:09 PM 37.2889 -77.7219 56° Northeast 293 337 7,400 -2,050 Descending Washington Center
Tue 04:34:09 PM 37.3175 -77.6236 70° East 272 313 5,000 -2,050 Descending Washington Center
Tue 04:35:09 PM 37.3419 -77.5300 72° East 272 313 3,300 -942 Descending Washington Center
Tue 04:36:10 PM 37.3622 -77.4469 73° East 259 298 3,100 -469 Descending Washington Center
Tue 04:38:08 PM 37.4167 -77.3167 62° Northeast 188 216 1,900 -637 Descending Potomac TRACON
Tue 04:39:09 PM 37.4500 -77.2833 38° Northeast 140 161 1,200 -744 Descending Potomac TRACON
Tue 04:40:09 PM 37.4833 -77.3000 338° Northwest 135 155 400 -800 Descending Potomac TRACON
Tue 04:42:00 PM 37.5000 -77.3167 North  Level FlightAware Approximate
Tue 04:49:00 PM 37.5052 -77.3197 North  Level Estimated
Tue 04:50:00 PM 37.5000 -77.3167 North  Level FlightAware Approximate
Tue 04:51:00 PM 37.5052 -77.3197 North  Level Estimated
Tue 04:52:00 PM 37.5000 -77.3167 North  Level FlightAware Approximate
Tue 04:53:00 PM 37.5052 -77.3197 North  Level Estimated

Login

Don't have an account? Register now (free) for customized features, flight alerts, and more!